KBDRKUUU

Guest
Details From KBDR - IGOR I SIKORSKY MEM
To KUUU - NEWPORT STATE
Flight Number -
Tags generated
Created
Modified
Stats Distance 86 nm / 159 km
Max Altitude 9,800 ft / 2,987 m
Waypoints 3
Social Downloads 0
Likes 0
Share VATSIM

Download

Looking for another format? Having issues loading an existing format? Contact us
Advertisement - Login to hide

Notes

Basic altitude profile: - Ascent Rate: 2500ft/min - Ascent Speed: 100kts - Cruise Altitude: 9000ft - Cruise Speed: 120kts - Descent Rate: 1500ft/min - Descent Speed: 100kts Options: - Use NATs: yes - Use PACOTS: yes - Use low airways: yes - Use high airways: yes

Route

KBDR KURTY KUUU

ID Type Via Altitude Latitude Longitude Leg Dist Tot Dist Heading (true) Name
O KBDR APT - 0 ft / 0 m 41.16435˚ -73.12620˚ - 0 nm - IGOR I SIKORSKY MEM
KURTY FIX - 9,800 ft / 2,987 m 41.34787˚ -72.26786˚ 40 nm 40 nm 74° / 74° -
O KUUU APT - 0 ft / 0 m 41.53252˚ -71.28159˚ 45 nm 86 nm 76° / 76° NEWPORT STATE

Altitude Profile

Advertisement - Login to hide

KBDR

Details ICAO KBDR (BDR)
Name IGOR I SIKORSKY MEM
Region United States
Timezone America/New_York (UTC-5.0)
Stats Elevation 9 ft / 3 m (AMSL)
Location 41.164347° -73.126199°
Runways 3
Magnetic Variation 13.437° W

METAR

KBDR 141315Z 02007KT 2SM -SN BR BKN008 BKN012 OVC046 M04/M07 A2962

Decode

TAF

TAF AMD KBDR 141233Z 1413/1512 36007KT 2SM -SN OVC015 TEMPO 1413/1415 1SM -SN BKN007 FM141500 35009G17KT P6SM BKN014 TEMPO 1415/1416 2SM -SN FM142000 31010G20KT P6SM SCT060 FM150000 30011KT P6SM FEW230

Decode

Departure Runways

ID Width Length Bearing (true) Bearing (mag) Surface Threshold Offset Overrun Length
06 150 ft / 46 m 4,675 ft / 1,425 m 44.90° 58.34° Asphalt 0 ft / 0 m 300 ft / 91 m
11 150 ft / 46 m 4,748 ft / 1,447 m 97.86° 111.30° Asphalt 0 ft / 0 m 300 ft / 91 m
17 150 ft / 46 m 3,392 ft / 1,034 m 162.99° 176.43° Asphalt 0 ft / 0 m 1,200 ft / 366 m
24 150 ft / 46 m 4,675 ft / 1,425 m 224.90° 238.34° Asphalt 319 ft / 97 m 0 ft / 0 m
29 150 ft / 46 m 4,748 ft / 1,447 m 277.87° 291.31° Asphalt 364 ft / 111 m 0 ft / 0 m
35 150 ft / 46 m 3,392 ft / 1,034 m 343.00° 356.44° Asphalt 0 ft / 0 m 300 ft / 91 m

KUUU

Details ICAO KUUU
Name NEWPORT STATE
Region United States
Timezone America/New_York (UTC-5.0)
Stats Elevation 171 ft / 52 m (AMSL)
Location 41.532518° -71.281594°
Runways 2
Magnetic Variation 14.349° W

METAR

KUUU 141337Z AUTO 01009KT 1/2SM SN FZFG VV011 M06/M07 A2961 RMK AO2 P0002 T10611072

Decode

TAF

Not found

Destination Runways

ID Width Length Bearing (true) Bearing (mag) Surface Threshold Offset Overrun Length
04 75 ft / 23 m 3,001 ft / 915 m 23.75° 38.10° Asphalt 0 ft / 0 m 0 ft / 0 m
16 75 ft / 23 m 2,625 ft / 800 m 143.62° 157.97° Asphalt 0 ft / 0 m 0 ft / 0 m
22 75 ft / 23 m 3,001 ft / 915 m 203.75° 218.10° Asphalt 0 ft / 0 m 0 ft / 0 m
34 75 ft / 23 m 2,625 ft / 800 m 323.62° 337.97° Asphalt 243 ft / 74 m 0 ft / 0 m

Popular Alternatives